createdAt,value
2018-11-21T00:00:43.049Z,4.20
2018-11-21T00:03:30.460Z,4.20
2018-11-21T00:06:18.108Z,4.20
2018-11-21T00:09:08.410Z,4.20
2018-11-21T00:11:56.364Z,4.20
2018-11-21T00:14:45.007Z,4.20
2018-11-21T00:17:31.748Z,4.20
2018-11-21T00:20:19.107Z,4.20
2018-11-21T00:23:06.878Z,4.20
2018-11-21T00:25:54.688Z,4.10
2018-11-21T00:28:42.311Z,4.10
2018-11-21T00:31:29.852Z,4.10
2018-11-21T00:34:17.597Z,4.10
2018-11-21T00:37:04.998Z,4.10
2018-11-21T00:39:53.318Z,4.10
2018-11-21T00:42:46.621Z,4.10
2018-11-21T00:45:28.712Z,4.10
2018-11-21T00:48:16.511Z,4.00
2018-11-21T00:51:04.384Z,4.00
2018-11-21T00:53:52.092Z,4.00
2018-11-21T00:56:40.209Z,4.00
2018-11-21T00:59:27.857Z,4.00
2018-11-21T01:02:15.640Z,4.00
2018-11-21T01:05:03.131Z,4.00
2018-11-21T01:07:50.974Z,4.00
2018-11-21T01:10:38.807Z,4.10
2018-11-21T01:13:26.336Z,4.00
2018-11-21T01:16:14.134Z,4.00
2018-11-21T01:19:02.311Z,4.00
2018-11-21T01:21:50.001Z,4.10
2018-11-21T01:24:37.667Z,4.00
2018-11-21T01:27:25.282Z,4.00
2018-11-21T01:30:12.785Z,4.00
2018-11-21T01:33:00.542Z,4.00
2018-11-21T01:35:48.390Z,4.00
2018-11-21T01:38:36.566Z,4.00
2018-11-21T01:41:24.186Z,4.00
2018-11-21T01:44:11.964Z,4.00
2018-11-21T01:46:59.481Z,4.00
2018-11-21T01:49:47.103Z,4.00
2018-11-21T01:52:35.094Z,3.90
2018-11-21T01:55:22.729Z,3.90
2018-11-21T01:58:10.563Z,3.90
2018-11-21T02:00:58.389Z,3.90
2018-11-21T02:03:45.917Z,3.90
2018-11-21T02:06:33.333Z,3.90
2018-11-21T02:09:21.065Z,3.90
2018-11-21T02:12:08.446Z,3.90
2018-11-21T02:14:56.224Z,3.90
2018-11-21T02:17:43.837Z,3.90
2018-11-21T02:20:31.644Z,3.90
2018-11-21T02:23:19.475Z,3.80
2018-11-21T02:26:07.284Z,3.80
2018-11-21T02:28:55.056Z,3.80
2018-11-21T02:31:42.810Z,3.80
2018-11-21T02:34:30.442Z,3.80
2018-11-21T02:37:18.062Z,3.80
2018-11-21T02:40:06.098Z,3.70
2018-11-21T02:42:54.113Z,3.70
2018-11-21T02:45:41.538Z,3.70
2018-11-21T02:48:29.633Z,3.70
2018-11-21T02:51:17.404Z,3.70
2018-11-21T02:54:05.214Z,3.70
2018-11-21T02:57:15.090Z,3.70
2018-11-21T03:00:14.097Z,3.70
2018-11-21T03:03:01.739Z,3.70
2018-11-21T03:05:49.516Z,3.70
2018-11-21T03:08:37.184Z,3.60
2018-11-21T03:11:24.758Z,3.60
2018-11-21T03:14:12.608Z,3.50
2018-11-21T03:17:00.678Z,3.60
2018-11-21T03:19:48.318Z,3.60
2018-11-21T03:22:36.178Z,3.60
2018-11-21T03:25:24.208Z,3.60
2018-11-21T03:28:11.778Z,3.60
2018-11-21T03:31:00.022Z,3.50
2018-11-21T03:33:47.491Z,3.50
2018-11-21T03:36:35.140Z,3.50
2018-11-21T03:39:23.913Z,3.50
2018-11-21T03:42:11.492Z,3.40
2018-11-21T03:44:59.632Z,3.40
2018-11-21T03:47:47.300Z,3.40
2018-11-21T03:50:34.744Z,3.40
2018-11-21T03:53:22.549Z,3.30
2018-11-21T03:56:10.311Z,3.30
2018-11-21T03:58:58.010Z,3.20
2018-11-21T04:01:45.454Z,3.20
2018-11-21T04:04:33.243Z,3.10
2018-11-21T04:07:21.007Z,3.10
2018-11-21T04:10:13.449Z,3.00
2018-11-21T04:13:01.243Z,3.00
2018-11-21T04:15:48.778Z,2.90
2018-11-21T04:18:36.783Z,2.80
2018-11-21T04:21:24.468Z,2.70
2018-11-21T04:24:12.226Z,2.70
2018-11-21T04:27:00.111Z,2.60
2018-11-21T04:29:47.841Z,2.60
2018-11-21T04:32:35.686Z,2.60
2018-11-21T04:35:23.200Z,2.50
2018-11-21T04:38:10.633Z,2.50
2018-11-21T04:40:58.262Z,2.50
2018-11-21T04:43:46.192Z,2.40
2018-11-21T04:46:34.097Z,2.40
2018-11-21T04:49:21.668Z,2.50
2018-11-21T04:52:09.558Z,2.50
2018-11-21T04:54:57.351Z,2.50
2018-11-21T04:57:44.909Z,2.40
2018-11-21T05:00:32.407Z,2.50
2018-11-21T05:03:20.466Z,2.60
2018-11-21T05:06:08.786Z,2.50
2018-11-21T05:08:56.461Z,2.50
2018-11-21T05:11:43.941Z,2.50
2018-11-21T05:14:31.782Z,2.60
2018-11-21T05:17:19.724Z,2.70
2018-11-21T05:20:07.568Z,2.70
2018-11-21T05:22:55.170Z,2.70
2018-11-21T05:25:42.629Z,2.70
2018-11-21T05:28:30.341Z,2.70
2018-11-21T05:31:17.872Z,2.70
2018-11-21T05:34:05.593Z,2.70
2018-11-21T05:36:53.353Z,2.60
2018-11-21T05:39:41.151Z,2.70
2018-11-21T05:42:28.926Z,2.70
2018-11-21T05:45:16.650Z,2.70
2018-11-21T05:48:04.462Z,2.70
2018-11-21T05:50:52.104Z,2.70
2018-11-21T05:53:39.894Z,2.70
2018-11-21T05:56:27.552Z,2.70
2018-11-21T05:59:15.623Z,2.60
2018-11-21T06:02:03.315Z,2.60
2018-11-21T06:04:50.893Z,2.60
2018-11-21T06:07:38.483Z,2.60
2018-11-21T06:10:26.534Z,2.50
2018-11-21T06:13:14.181Z,2.50
2018-11-21T06:16:02.063Z,2.60
2018-11-21T06:18:51.468Z,2.70
2018-11-21T06:21:39.132Z,2.70
2018-11-21T06:24:26.748Z,2.70
2018-11-21T06:27:14.638Z,2.70
2018-11-21T06:30:02.309Z,2.70
2018-11-21T06:32:50.220Z,2.80
2018-11-21T06:35:37.854Z,2.80
2018-11-21T06:38:25.748Z,2.80
2018-11-21T06:41:13.653Z,2.70
2018-11-21T06:44:01.411Z,2.80
2018-11-21T06:46:48.997Z,2.80
2018-11-21T06:49:36.678Z,2.80
2018-11-21T06:52:24.651Z,2.80
2018-11-21T06:55:12.244Z,2.80
2018-11-21T06:58:00.855Z,2.80
2018-11-21T07:00:49.023Z,2.80
2018-11-21T07:03:36.705Z,2.90
2018-11-21T07:06:24.334Z,2.80
2018-11-21T07:09:12.487Z,2.80
2018-11-21T07:12:00.268Z,2.90
2018-11-21T07:14:47.852Z,2.80
2018-11-21T07:17:35.323Z,2.80
2018-11-21T07:20:23.313Z,2.80
2018-11-21T07:23:11.089Z,2.80
2018-11-21T07:25:58.892Z,2.80
2018-11-21T07:28:46.660Z,2.80
2018-11-21T07:31:34.468Z,2.80
2018-11-21T07:34:22.222Z,2.80
2018-11-21T07:37:10.325Z,2.80
2018-11-21T07:39:58.167Z,2.80
2018-11-21T07:42:45.989Z,2.80
2018-11-21T07:45:33.659Z,2.90
2018-11-21T07:48:21.348Z,2.90
2018-11-21T07:51:08.928Z,2.90
2018-11-21T07:53:56.308Z,3.00
2018-11-21T07:57:29.892Z,2.90
2018-11-21T08:01:06.463Z,3.00
2018-11-21T08:03:56.108Z,3.00
2018-11-21T08:06:49.194Z,3.00
2018-11-21T08:09:56.769Z,3.10
2018-11-21T08:13:02.152Z,3.20
2018-11-21T08:16:01.849Z,3.30
2018-11-21T08:19:00.248Z,3.30
2018-11-21T08:22:07.520Z,3.40
2018-11-21T08:25:17.574Z,3.50
2018-11-21T08:28:22.312Z,3.60
2018-11-21T08:31:10.142Z,3.60
2018-11-21T08:33:57.868Z,3.60
2018-11-21T08:36:45.400Z,3.60
2018-11-21T08:39:33.127Z,3.70
2018-11-21T08:42:20.997Z,3.70
2018-11-21T08:45:09.462Z,3.70
2018-11-21T08:47:57.075Z,3.80
2018-11-21T08:50:44.632Z,3.80
2018-11-21T08:53:32.530Z,3.90
2018-11-21T08:56:20.361Z,3.90
2018-11-21T08:59:08.241Z,3.90
2018-11-21T09:01:55.863Z,3.80
2018-11-21T09:04:43.388Z,3.80
2018-11-21T09:07:31.317Z,3.70
2018-11-21T09:10:18.838Z,3.80
2018-11-21T09:13:06.431Z,3.80
2018-11-21T09:15:54.179Z,3.80
2018-11-21T09:18:41.942Z,3.90
2018-11-21T09:21:29.323Z,3.90
2018-11-21T09:24:16.916Z,4.00
2018-11-21T09:27:05.038Z,4.00
2018-11-21T09:29:52.686Z,3.90
2018-11-21T09:32:40.254Z,4.00
2018-11-21T09:35:28.131Z,4.20
2018-11-21T09:38:15.863Z,4.10
2018-11-21T09:41:04.521Z,4.10
2018-11-21T09:43:50.977Z,4.20
2018-11-21T09:46:39.068Z,4.20
2018-11-21T09:49:27.183Z,4.20
2018-11-21T09:52:14.732Z,4.20
2018-11-21T09:55:02.528Z,4.30
2018-11-21T09:57:49.982Z,4.30
2018-11-21T10:01:18.114Z,4.20
2018-11-21T10:04:06.050Z,4.20
2018-11-21T10:06:54.124Z,4.20
2018-11-21T10:09:43.880Z,4.10
2018-11-21T10:12:31.417Z,4.10
2018-11-21T10:15:19.186Z,4.10
2018-11-21T10:18:06.722Z,4.00
2018-11-21T10:20:54.513Z,4.00
2018-11-21T10:23:42.317Z,4.00
2018-11-21T10:26:29.948Z,4.10
2018-11-21T10:29:17.782Z,4.00
2018-11-21T10:32:05.468Z,4.00
2018-11-21T10:34:53.291Z,4.00
2018-11-21T10:37:40.923Z,4.00
2018-11-21T10:40:28.506Z,4.00
2018-11-21T10:43:16.283Z,4.00
2018-11-21T10:46:04.064Z,4.00
2018-11-21T10:48:51.604Z,4.20
2018-11-21T10:51:39.234Z,4.30
2018-11-21T10:54:26.606Z,4.40
2018-11-21T10:57:14.585Z,4.40
2018-11-21T11:00:02.061Z,4.40
2018-11-21T11:03:04.795Z,4.50
2018-11-21T11:06:10.246Z,4.30
2018-11-21T11:09:17.221Z,4.30
2018-11-21T11:12:22.981Z,4.40
2018-11-21T11:15:28.095Z,4.40
2018-11-21T11:18:33.868Z,4.50
2018-11-21T11:21:55.695Z,4.50
2018-11-21T11:25:05.279Z,4.60
2018-11-21T11:28:14.610Z,4.70
2018-11-21T11:31:15.818Z,4.60
2018-11-21T11:34:18.413Z,4.70
2018-11-21T11:37:24.192Z,4.40
2018-11-21T11:40:30.231Z,4.30
2018-11-21T11:43:35.669Z,4.20
2018-11-21T11:46:42.142Z,4.20
2018-11-21T11:49:48.832Z,4.30
2018-11-21T11:52:58.557Z,4.20
2018-11-21T11:56:11.302Z,4.20
2018-11-21T11:59:16.826Z,4.20
2018-11-21T12:02:22.489Z,4.00
2018-11-21T12:05:32.126Z,4.00
2018-11-21T12:08:37.163Z,4.00
2018-11-21T12:11:42.914Z,3.90
2018-11-21T12:14:51.567Z,3.90
2018-11-21T12:17:58.099Z,3.90
2018-11-21T12:21:02.228Z,4.00
2018-11-21T12:24:14.546Z,4.10
2018-11-21T12:27:23.972Z,4.30
2018-11-21T12:30:36.806Z,4.40
2018-11-21T12:33:46.635Z,4.60
2018-11-21T12:36:53.735Z,4.70
2018-11-21T12:39:59.080Z,4.70
2018-11-21T12:43:04.315Z,4.70
2018-11-21T12:46:09.756Z,4.90
2018-11-21T12:49:16.739Z,4.60
2018-11-21T12:52:26.488Z,4.50
2018-11-21T12:55:51.697Z,4.50
2018-11-21T12:58:57.253Z,4.50
2018-11-21T13:02:06.674Z,4.40
2018-11-21T13:05:22.379Z,4.20
2018-11-21T13:08:28.030Z,4.30
2018-11-21T13:11:34.406Z,4.40
2018-11-21T13:14:39.741Z,4.40
2018-11-21T13:17:45.183Z,4.50
2018-11-21T13:20:52.170Z,4.50
2018-11-21T13:24:07.962Z,4.50
2018-11-21T13:27:14.493Z,4.40
2018-11-21T13:30:19.788Z,4.50
2018-11-21T13:33:27.084Z,4.50
2018-11-21T13:36:46.233Z,4.40
2018-11-21T13:39:51.182Z,4.40
2018-11-21T13:42:56.818Z,4.50
2018-11-21T13:46:02.260Z,4.50
2018-11-21T13:49:21.231Z,4.50
2018-11-21T13:52:43.533Z,4.50
2018-11-21T13:55:31.845Z,4.50
2018-11-21T13:58:19.441Z,4.60
2018-11-21T14:01:07.326Z,4.60
2018-11-21T14:03:54.928Z,4.60
2018-11-21T14:06:42.727Z,4.60
2018-11-21T14:09:30.170Z,4.60
2018-11-21T14:12:18.053Z,4.60
2018-11-21T14:15:06.465Z,4.60
2018-11-21T14:17:54.193Z,4.60
2018-11-21T14:20:41.981Z,4.60
2018-11-21T14:23:29.596Z,4.60
2018-11-21T14:26:17.333Z,4.60
2018-11-21T14:29:05.167Z,4.60
2018-11-21T14:31:52.572Z,4.60
2018-11-21T14:34:40.222Z,4.60
2018-11-21T14:37:28.209Z,4.60
2018-11-21T14:40:17.251Z,4.50
2018-11-21T14:43:05.371Z,4.50
2018-11-21T14:45:53.711Z,4.40
2018-11-21T14:48:41.727Z,4.40
2018-11-21T14:51:29.721Z,4.40
2018-11-21T14:54:17.357Z,4.50
2018-11-21T14:57:05.040Z,4.50
2018-11-21T14:59:52.624Z,4.50
2018-11-21T15:02:40.636Z,4.50
2018-11-21T15:05:28.198Z,4.50
2018-11-21T15:08:16.033Z,4.50
2018-11-21T15:11:03.630Z,4.50
2018-11-21T15:13:51.156Z,4.40
2018-11-21T15:16:39.094Z,4.40
2018-11-21T15:19:26.687Z,4.40
2018-11-21T15:22:14.349Z,4.30
2018-11-21T15:25:02.043Z,4.30
2018-11-21T15:27:49.881Z,4.30
2018-11-21T15:30:37.497Z,4.30
2018-11-21T15:33:25.049Z,4.20
2018-11-21T15:36:12.799Z,4.20
2018-11-21T15:39:00.800Z,4.30
2018-11-21T15:41:48.626Z,4.20
2018-11-21T15:44:36.772Z,4.20
2018-11-21T15:47:24.352Z,4.20
2018-11-21T15:50:14.336Z,4.20
2018-11-21T15:53:02.660Z,4.30
2018-11-21T15:55:50.519Z,4.20
2018-11-21T15:58:38.181Z,4.20
2018-11-21T16:01:25.688Z,4.20
2018-11-21T16:04:13.449Z,4.10
2018-11-21T16:07:01.532Z,4.10
2018-11-21T16:09:49.336Z,4.10
2018-11-21T16:12:37.769Z,4.10
2018-11-21T16:15:30.938Z,4.00
2018-11-21T16:18:15.341Z,4.00
2018-11-21T16:21:03.227Z,4.00
2018-11-21T16:23:51.111Z,4.00
2018-11-21T16:26:38.887Z,4.00
2018-11-21T16:29:27.170Z,3.90
2018-11-21T16:32:14.908Z,3.90
2018-11-21T16:35:08.158Z,3.90
2018-11-21T16:37:57.768Z,3.90
2018-11-21T16:40:46.106Z,3.80
2018-11-21T16:43:34.160Z,3.80
2018-11-21T16:46:22.216Z,3.80
2018-11-21T16:49:09.865Z,3.80
2018-11-21T16:51:58.058Z,3.80
2018-11-21T16:54:46.449Z,3.80
2018-11-21T16:57:34.238Z,3.70
2018-11-21T17:00:24.122Z,3.70
2018-11-21T17:03:12.192Z,3.70
2018-11-21T17:06:00.059Z,3.70
2018-11-21T17:08:47.531Z,3.70
2018-11-21T17:11:35.772Z,3.70
2018-11-21T17:14:23.695Z,3.70
2018-11-21T17:17:12.117Z,3.70
2018-11-21T17:20:00.514Z,3.70
2018-11-21T17:22:49.863Z,3.70
2018-11-21T17:25:38.484Z,3.70
2018-11-21T17:28:26.062Z,3.70
2018-11-21T17:31:13.690Z,3.70
2018-11-21T17:34:01.673Z,3.70
2018-11-21T17:36:50.202Z,3.70
2018-11-21T17:39:37.878Z,3.70
2018-11-21T17:42:28.901Z,3.60
2018-11-21T17:45:18.027Z,3.60
2018-11-21T17:48:05.995Z,3.60
2018-11-21T17:50:54.298Z,3.60
2018-11-21T17:53:42.456Z,3.60
2018-11-21T17:56:31.037Z,3.50
2018-11-21T17:59:18.866Z,3.50
2018-11-21T18:02:07.020Z,3.50
2018-11-21T18:04:54.752Z,3.50
2018-11-21T18:07:42.888Z,3.50
2018-11-21T18:10:32.156Z,3.50
2018-11-21T18:13:20.097Z,3.50
2018-11-21T18:16:07.642Z,3.50
2018-11-21T18:18:55.381Z,3.50
2018-11-21T18:21:42.900Z,3.50
2018-11-21T18:24:30.849Z,3.50
2018-11-21T18:27:18.357Z,3.50
2018-11-21T18:30:11.711Z,3.50
2018-11-21T18:32:59.458Z,3.40
2018-11-21T18:35:47.208Z,3.40
2018-11-21T18:38:34.992Z,3.50
2018-11-21T18:41:22.893Z,3.40
2018-11-21T18:44:10.403Z,3.40
2018-11-21T18:46:57.958Z,3.40
2018-11-21T18:49:45.920Z,3.40
2018-11-21T18:52:33.501Z,3.40
2018-11-21T18:55:23.193Z,3.40
2018-11-21T18:58:20.056Z,3.40
2018-11-21T19:01:07.736Z,3.40
2018-11-21T19:03:55.518Z,3.40
2018-11-21T19:06:43.274Z,3.40
2018-11-21T19:09:30.828Z,3.40
2018-11-21T19:12:18.249Z,3.40
2018-11-21T19:15:08.165Z,3.40
2018-11-21T19:17:55.647Z,3.40
2018-11-21T19:20:43.217Z,3.40
2018-11-21T19:23:31.011Z,3.40
2018-11-21T19:26:18.788Z,3.40
2018-11-21T19:29:06.670Z,3.40
2018-11-21T19:31:54.488Z,3.40
2018-11-21T19:34:42.220Z,3.40
2018-11-21T19:37:30.029Z,3.40
2018-11-21T19:40:18.389Z,3.40
2018-11-21T19:43:06.152Z,3.40
2018-11-21T19:45:54.200Z,3.40
2018-11-21T19:48:41.632Z,3.40
2018-11-21T19:51:29.482Z,3.40
2018-11-21T19:54:17.067Z,3.40
2018-11-21T19:57:05.378Z,3.40
2018-11-21T19:59:52.827Z,3.40
2018-11-21T20:02:40.252Z,3.40
2018-11-21T20:05:27.961Z,3.40
2018-11-21T20:08:15.630Z,3.40
2018-11-21T20:11:03.398Z,3.40
2018-11-21T20:13:51.060Z,3.40
2018-11-21T20:16:38.794Z,3.40
2018-11-21T20:19:26.429Z,3.30
2018-11-21T20:22:14.517Z,3.30
2018-11-21T20:25:02.088Z,3.30
2018-11-21T20:27:49.825Z,3.30
2018-11-21T20:30:38.722Z,3.30
2018-11-21T20:33:26.614Z,3.30
2018-11-21T20:36:14.439Z,3.30
2018-11-21T20:39:02.331Z,3.30
2018-11-21T20:41:49.920Z,3.30
2018-11-21T20:44:38.093Z,3.30
2018-11-21T20:47:25.511Z,3.40
2018-11-21T20:50:13.172Z,3.40
2018-11-21T20:53:00.854Z,3.40
2018-11-21T20:55:48.436Z,3.40
2018-11-21T20:58:35.817Z,3.40
2018-11-21T21:01:23.407Z,3.40
2018-11-21T21:04:11.573Z,3.40
2018-11-21T21:06:59.582Z,3.40
2018-11-21T21:09:47.344Z,3.40
2018-11-21T21:12:35.107Z,3.40
2018-11-21T21:15:22.844Z,3.40
2018-11-21T21:18:12.440Z,3.40
2018-11-21T21:21:00.323Z,3.40
2018-11-21T21:23:47.711Z,3.50
2018-11-21T21:26:35.473Z,3.40
2018-11-21T21:29:22.953Z,3.50
2018-11-21T21:32:10.755Z,3.50
2018-11-21T21:34:59.037Z,3.40
2018-11-21T21:37:46.946Z,3.50
2018-11-21T21:40:35.117Z,3.50
2018-11-21T21:43:23.136Z,3.50
2018-11-21T21:46:11.252Z,3.50
2018-11-21T21:48:59.772Z,3.50
2018-11-21T21:51:47.924Z,3.50
2018-11-21T21:54:36.485Z,3.50
2018-11-21T21:57:26.105Z,3.40
2018-11-21T22:00:16.654Z,3.50
2018-11-21T22:03:04.329Z,3.50
2018-11-21T22:05:52.219Z,3.50
2018-11-21T22:08:39.794Z,3.50
2018-11-21T22:11:27.418Z,3.50
2018-11-21T22:14:15.186Z,3.50
2018-11-21T22:17:02.951Z,3.50
2018-11-21T22:19:50.495Z,3.50
2018-11-21T22:22:38.192Z,3.50
2018-11-21T22:25:26.103Z,3.50
2018-11-21T22:28:13.560Z,3.50
2018-11-21T22:31:01.139Z,3.50
2018-11-21T22:33:48.868Z,3.50
2018-11-21T22:36:36.723Z,3.50
2018-11-21T22:39:24.408Z,3.50
2018-11-21T22:42:12.089Z,3.50
2018-11-21T22:45:00.359Z,3.50
2018-11-21T22:47:48.186Z,3.50
2018-11-21T22:50:35.721Z,3.50
2018-11-21T22:53:23.569Z,3.50
2018-11-21T22:56:11.301Z,3.50
2018-11-21T22:58:59.076Z,3.50
2018-11-21T23:01:46.927Z,3.50
2018-11-21T23:04:34.749Z,3.50
2018-11-21T23:07:22.923Z,3.40
2018-11-21T23:10:12.175Z,3.40
2018-11-21T23:12:59.953Z,3.40
2018-11-21T23:15:47.819Z,3.40
2018-11-21T23:18:35.394Z,3.40
2018-11-21T23:21:23.510Z,3.30
2018-11-21T23:24:11.227Z,3.30
2018-11-21T23:26:59.053Z,3.30
2018-11-21T23:29:46.748Z,3.30
2018-11-21T23:32:34.435Z,3.30
2018-11-21T23:35:22.243Z,3.30
2018-11-21T23:38:09.771Z,3.30
2018-11-21T23:40:57.759Z,3.30
2018-11-21T23:43:45.766Z,3.30
2018-11-21T23:46:33.377Z,3.30
2018-11-21T23:49:20.792Z,3.30
2018-11-21T23:52:08.399Z,3.30
2018-11-21T23:54:56.169Z,3.30
2018-11-21T23:57:43.810Z,3.20
